createdAt,value
2018-12-19T00:01:28.824Z,-3.00
2018-12-19T00:03:57.473Z,-2.90
2018-12-19T00:06:25.901Z,-2.80
2018-12-19T00:08:54.562Z,-2.60
2018-12-19T00:11:23.338Z,-2.50
2018-12-19T00:13:52.093Z,-2.40
2018-12-19T00:16:20.716Z,-2.30
2018-12-19T00:18:49.296Z,-2.20
2018-12-19T00:21:17.886Z,-2.10
2018-12-19T00:23:46.463Z,-2.00
2018-12-19T00:26:15.246Z,-2.00
2018-12-19T00:28:44.812Z,-1.90
2018-12-19T00:31:13.508Z,-1.80
2018-12-19T00:33:42.511Z,-1.60
2018-12-19T00:36:10.992Z,-1.40
2018-12-19T00:38:39.594Z,-1.20
2018-12-19T00:41:08.077Z,-0.70
2018-12-19T00:43:37.139Z,-0.60
2018-12-19T00:46:05.771Z,-0.40
2018-12-19T00:48:34.409Z,-0.30
2018-12-19T00:51:03.187Z,-0.10
2018-12-19T00:53:32.712Z,0.00
2018-12-19T00:56:01.516Z,0.10
2018-12-19T00:58:30.280Z,0.20
2018-12-19T01:01:00.507Z,0.30
2018-12-19T01:03:29.465Z,0.50
2018-12-19T01:05:58.304Z,0.70
2018-12-19T01:08:27.779Z,0.90
2018-12-19T01:10:56.176Z,0.60
2018-12-19T01:13:24.763Z,0.20
2018-12-19T01:15:53.089Z,0.00
2018-12-19T01:18:21.694Z,-0.20
2018-12-19T01:20:50.477Z,-0.30
2018-12-19T01:23:19.120Z,-0.40
2018-12-19T01:25:48.368Z,-0.40
2018-12-19T01:28:17.722Z,-0.40
2018-12-19T01:30:46.408Z,-0.30
2018-12-19T01:33:14.777Z,-0.30
2018-12-19T01:35:43.544Z,-0.20
2018-12-19T01:38:12.270Z,-0.20
2018-12-19T01:40:40.976Z,-0.20
2018-12-19T01:43:09.632Z,-0.20
2018-12-19T01:45:38.433Z,-0.20
2018-12-19T01:48:07.004Z,-0.10
2018-12-19T01:50:35.598Z,0.00
2018-12-19T01:53:04.360Z,-0.10
2018-12-19T01:55:33.580Z,0.00
2018-12-19T01:58:02.491Z,0.00
2018-12-19T02:00:32.451Z,0.10
2018-12-19T02:03:01.237Z,0.10
2018-12-19T02:05:30.649Z,0.20
2018-12-19T02:07:59.564Z,0.20
2018-12-19T02:10:28.269Z,0.10
2018-12-19T02:12:57.745Z,0.10
2018-12-19T02:15:26.856Z,0.00
2018-12-19T02:17:55.750Z,0.00
2018-12-19T02:20:25.631Z,-0.10
2018-12-19T02:22:54.346Z,-0.10
2018-12-19T02:25:23.029Z,-0.10
2018-12-19T02:27:51.558Z,0.00
2018-12-19T02:30:20.177Z,0.00
2018-12-19T02:32:48.577Z,0.10
2018-12-19T02:35:17.420Z,0.10
2018-12-19T02:37:48.208Z,0.20
2018-12-19T02:40:16.896Z,0.20
2018-12-19T02:42:45.275Z,0.30
2018-12-19T02:45:13.790Z,0.30
2018-12-19T02:47:42.774Z,0.30
2018-12-19T02:50:11.345Z,0.30
2018-12-19T02:52:40.284Z,0.20
2018-12-19T02:55:09.582Z,0.30
2018-12-19T02:57:37.895Z,0.30
2018-12-19T03:00:07.236Z,0.30
2018-12-19T03:02:36.173Z,0.30
2018-12-19T03:05:05.389Z,0.30
2018-12-19T03:07:34.074Z,0.30
2018-12-19T03:10:02.472Z,0.30
2018-12-19T03:12:31.208Z,0.30
2018-12-19T03:15:00.344Z,0.30
2018-12-19T03:17:28.894Z,0.30
2018-12-19T03:19:57.925Z,0.30
2018-12-19T03:22:27.225Z,0.20
2018-12-19T03:24:55.901Z,0.30
2018-12-19T03:27:24.379Z,0.30
2018-12-19T03:29:52.765Z,0.20
2018-12-19T03:32:22.166Z,0.30
2018-12-19T03:34:50.892Z,0.30
2018-12-19T03:37:20.210Z,0.30
2018-12-19T03:39:50.408Z,0.40
2018-12-19T03:42:19.281Z,0.40
2018-12-19T03:44:47.969Z,0.30
2018-12-19T03:47:16.657Z,0.30
2018-12-19T03:49:45.379Z,0.20
2018-12-19T03:52:13.828Z,0.20
2018-12-19T03:54:42.471Z,0.20
2018-12-19T03:57:10.814Z,0.10
2018-12-19T03:59:39.571Z,0.00
2018-12-19T04:02:08.337Z,0.00
2018-12-19T04:04:37.328Z,0.00
2018-12-19T04:07:05.926Z,-0.10
2018-12-19T04:09:34.489Z,0.00
2018-12-19T04:12:03.500Z,0.10
2018-12-19T04:14:31.922Z,0.10
2018-12-19T04:17:00.548Z,0.20
2018-12-19T04:19:29.044Z,0.20
2018-12-19T04:21:57.403Z,0.20
2018-12-19T04:24:25.813Z,0.10
2018-12-19T04:26:55.422Z,0.20
2018-12-19T04:29:23.955Z,0.20
2018-12-19T04:31:52.717Z,0.30
2018-12-19T04:34:22.099Z,0.40
2018-12-19T04:36:50.587Z,0.40
2018-12-19T04:39:20.197Z,0.50
2018-12-19T04:41:48.694Z,0.50
2018-12-19T04:44:17.256Z,0.50
2018-12-19T04:46:46.357Z,0.50
2018-12-19T04:49:14.755Z,0.50
2018-12-19T04:51:43.233Z,0.50
2018-12-19T04:54:11.568Z,0.50
2018-12-19T04:56:40.045Z,0.60
2018-12-19T04:59:08.736Z,0.60
2018-12-19T05:01:37.404Z,0.60
2018-12-19T05:04:06.315Z,0.60
2018-12-19T05:06:34.896Z,0.60
2018-12-19T05:09:07.162Z,0.70
2018-12-19T05:11:35.759Z,0.70
2018-12-19T05:14:05.534Z,0.70
2018-12-19T05:16:34.509Z,0.80
2018-12-19T05:19:03.484Z,0.90
2018-12-19T05:21:31.860Z,0.90
2018-12-19T05:24:00.453Z,1.10
2018-12-19T05:26:29.443Z,1.10
2018-12-19T05:28:58.329Z,1.10
2018-12-19T05:31:26.727Z,1.20
2018-12-19T05:33:55.373Z,1.30
2018-12-19T05:36:24.197Z,1.40
2018-12-19T05:38:55.501Z,1.30
2018-12-19T05:41:24.515Z,1.30
2018-12-19T05:43:52.916Z,1.30
2018-12-19T05:46:21.632Z,1.30
2018-12-19T05:48:50.167Z,1.30
2018-12-19T05:51:18.561Z,1.40
2018-12-19T05:53:46.721Z,1.40
2018-12-19T05:56:15.719Z,1.40
2018-12-19T05:58:44.068Z,1.40
2018-12-19T06:01:12.780Z,1.40
2018-12-19T06:03:41.526Z,1.40
2018-12-19T06:06:12.237Z,1.50
2018-12-19T06:08:41.346Z,1.50
2018-12-19T06:11:09.851Z,1.60
2018-12-19T06:13:38.250Z,1.70
2018-12-19T06:16:07.777Z,1.80
2018-12-19T06:18:36.384Z,1.90
2018-12-19T06:21:05.300Z,2.00
2018-12-19T06:23:34.652Z,2.20
2018-12-19T06:26:03.413Z,2.20
2018-12-19T06:28:32.144Z,2.10
2018-12-19T06:31:00.599Z,2.00
2018-12-19T06:33:29.288Z,1.90
2018-12-19T06:35:58.169Z,2.00
2018-12-19T06:38:26.940Z,2.00
2018-12-19T06:40:55.768Z,2.00
2018-12-19T06:43:25.053Z,2.00
2018-12-19T06:45:54.539Z,2.10
2018-12-19T06:48:23.199Z,2.10
2018-12-19T06:50:51.541Z,2.20
2018-12-19T06:53:19.769Z,2.40
2018-12-19T06:55:48.834Z,2.70
2018-12-19T06:58:17.373Z,2.90
2018-12-19T07:00:45.695Z,3.40
2018-12-19T07:03:13.906Z,4.00
2018-12-19T07:05:42.318Z,4.40
2018-12-19T07:08:10.801Z,4.70
2018-12-19T07:10:39.369Z,5.10
2018-12-19T07:13:08.041Z,5.30
2018-12-19T07:15:36.460Z,5.50
2018-12-19T07:18:04.644Z,5.60
2018-12-19T07:20:33.065Z,5.60
2018-12-19T07:23:01.393Z,5.60
2018-12-19T07:25:29.639Z,5.60
2018-12-19T07:27:57.845Z,5.70
2018-12-19T07:30:26.204Z,5.70
2018-12-19T07:32:54.624Z,5.70
2018-12-19T07:35:22.832Z,5.70
2018-12-19T07:37:51.596Z,5.70
2018-12-19T07:40:19.879Z,5.70
2018-12-19T07:42:48.193Z,5.70
2018-12-19T07:45:16.909Z,5.70
2018-12-19T07:47:45.160Z,5.70
2018-12-19T07:50:13.474Z,5.80
2018-12-19T07:52:41.763Z,5.80
2018-12-19T07:55:10.009Z,5.80
2018-12-19T07:57:38.327Z,5.80
2018-12-19T08:00:06.978Z,5.90
2018-12-19T08:02:35.302Z,6.00
2018-12-19T08:05:03.837Z,6.00
2018-12-19T08:07:32.164Z,6.10
2018-12-19T08:10:00.493Z,6.00
2018-12-19T08:12:28.697Z,6.00
2018-12-19T08:15:02.523Z,6.00
2018-12-19T08:17:30.897Z,5.90
2018-12-19T08:19:59.181Z,5.90
2018-12-19T08:22:27.513Z,5.90
2018-12-19T08:24:55.756Z,5.90
2018-12-19T08:27:24.017Z,5.90
2018-12-19T08:29:52.318Z,5.80
2018-12-19T08:32:20.544Z,5.80
2018-12-19T08:34:48.865Z,5.80
2018-12-19T08:37:17.403Z,5.80
2018-12-19T08:39:45.849Z,5.80
2018-12-19T08:42:14.094Z,5.80
2018-12-19T08:44:42.421Z,5.90
2018-12-19T08:47:10.995Z,5.90
2018-12-19T08:49:39.350Z,5.90
2018-12-19T08:52:07.673Z,6.00
2018-12-19T08:54:35.984Z,6.00
2018-12-19T08:57:04.364Z,6.00
2018-12-19T08:59:33.039Z,6.00
2018-12-19T09:02:01.308Z,6.00
2018-12-19T09:04:29.697Z,6.00
2018-12-19T09:06:58.290Z,6.00
2018-12-19T09:09:28.053Z,6.10
2018-12-19T09:11:56.565Z,6.00
2018-12-19T09:14:24.984Z,6.10
2018-12-19T09:16:53.550Z,6.10
2018-12-19T09:19:21.902Z,6.20
2018-12-19T09:21:50.353Z,6.20
2018-12-19T09:24:18.672Z,6.30
2018-12-19T09:26:47.167Z,6.30
2018-12-19T09:29:16.114Z,6.40
2018-12-19T09:31:47.259Z,6.40
2018-12-19T09:34:16.030Z,6.40
2018-12-19T09:36:44.472Z,6.40
2018-12-19T09:39:12.864Z,6.40
2018-12-19T09:41:41.290Z,6.40
2018-12-19T09:44:09.645Z,6.50
2018-12-19T09:46:38.074Z,6.50
2018-12-19T09:49:12.189Z,6.50
2018-12-19T09:51:37.052Z,6.60
2018-12-19T09:54:05.400Z,6.60
2018-12-19T09:56:33.798Z,6.60
2018-12-19T09:59:02.283Z,6.60
2018-12-19T10:01:30.579Z,6.70
2018-12-19T10:03:59.018Z,6.70
2018-12-19T10:06:28.003Z,6.70
2018-12-19T10:08:56.278Z,6.80
2018-12-19T10:11:24.653Z,6.90
2018-12-19T10:13:52.948Z,7.00
2018-12-19T10:16:21.288Z,7.00
2018-12-19T10:18:49.686Z,7.10
2018-12-19T10:21:17.954Z,7.10
2018-12-19T10:23:46.361Z,7.10
2018-12-19T10:26:15.013Z,7.10
2018-12-19T10:28:43.560Z,7.10
2018-12-19T10:31:12.026Z,7.20
2018-12-19T10:33:40.619Z,7.10
2018-12-19T10:36:09.043Z,7.10
2018-12-19T10:38:37.436Z,7.20
2018-12-19T10:41:05.850Z,7.10
2018-12-19T10:43:34.220Z,7.10
2018-12-19T10:46:02.763Z,7.00
2018-12-19T10:48:31.322Z,6.90
2018-12-19T10:50:59.727Z,7.00
2018-12-19T10:53:28.237Z,6.90
2018-12-19T10:55:56.653Z,6.80
2018-12-19T10:58:25.260Z,6.90
2018-12-19T11:00:59.010Z,6.90
2018-12-19T11:03:27.384Z,7.00
2018-12-19T11:05:56.300Z,7.10
2018-12-19T11:08:24.626Z,7.20
2018-12-19T11:10:53.092Z,7.30
2018-12-19T11:13:22.029Z,7.40
2018-12-19T11:15:50.345Z,7.40
2018-12-19T11:18:18.509Z,7.50
2018-12-19T11:20:46.899Z,7.50
2018-12-19T11:23:15.169Z,7.50
2018-12-19T11:25:43.830Z,7.50
2018-12-19T11:28:12.109Z,7.40
2018-12-19T11:30:40.392Z,7.40
2018-12-19T11:33:08.612Z,7.40
2018-12-19T11:35:36.797Z,7.40
2018-12-19T11:38:05.454Z,7.40
2018-12-19T11:40:33.707Z,7.50
2018-12-19T11:43:01.886Z,7.50
2018-12-19T11:45:30.269Z,7.50
2018-12-19T11:47:58.749Z,7.50
2018-12-19T11:50:26.990Z,7.50
2018-12-19T11:52:55.641Z,7.50
2018-12-19T11:55:23.874Z,7.50
2018-12-19T11:57:52.173Z,7.50
2018-12-19T12:00:20.409Z,7.60
2018-12-19T12:02:48.770Z,7.60
2018-12-19T12:05:17.362Z,7.70
2018-12-19T12:07:46.452Z,7.70
2018-12-19T12:10:14.922Z,7.80
2018-12-19T12:12:43.208Z,7.70
2018-12-19T12:15:11.712Z,7.60
2018-12-19T12:17:39.968Z,7.60
2018-12-19T12:20:08.861Z,7.60
2018-12-19T12:22:37.441Z,7.70
2018-12-19T12:25:06.340Z,7.70
2018-12-19T12:27:34.680Z,7.80
2018-12-19T12:30:03.049Z,7.80
2018-12-19T12:32:31.281Z,7.90
2018-12-19T12:34:59.595Z,7.90
2018-12-19T12:37:27.800Z,7.90
2018-12-19T12:39:56.103Z,7.80
2018-12-19T12:42:24.516Z,7.80
2018-12-19T12:44:53.200Z,7.80
2018-12-19T12:47:21.693Z,7.80
2018-12-19T12:49:50.296Z,7.80
2018-12-19T12:52:18.561Z,7.80
2018-12-19T12:54:46.829Z,7.80
2018-12-19T12:57:15.218Z,7.80
2018-12-19T12:59:43.500Z,7.90
2018-12-19T13:02:12.427Z,8.00
2018-12-19T13:04:40.707Z,8.00
2018-12-19T13:07:09.075Z,8.10
2018-12-19T13:09:37.261Z,8.10
2018-12-19T13:12:05.775Z,8.00
2018-12-19T13:14:34.333Z,8.00
2018-12-19T13:17:02.605Z,8.00
2018-12-19T13:19:30.840Z,8.00
2018-12-19T13:21:59.017Z,8.00
2018-12-19T13:24:27.234Z,8.00
2018-12-19T13:26:55.510Z,8.00
2018-12-19T13:29:23.813Z,7.90
2018-12-19T13:31:52.633Z,7.80
2018-12-19T13:34:20.954Z,7.80
2018-12-19T13:36:49.472Z,7.70
2018-12-19T13:39:17.856Z,7.50
2018-12-19T13:41:46.202Z,7.50
2018-12-19T13:44:16.176Z,7.50
2018-12-19T13:46:44.647Z,7.40
2018-12-19T13:49:12.820Z,7.30
2018-12-19T13:51:41.180Z,7.30
2018-12-19T13:54:09.556Z,7.20
2018-12-19T13:56:37.860Z,7.20
2018-12-19T13:59:07.410Z,7.30
2018-12-19T14:01:35.936Z,7.30
2018-12-19T14:04:04.270Z,7.30
2018-12-19T14:06:32.669Z,7.30
2018-12-19T14:09:01.072Z,7.30
2018-12-19T14:11:29.543Z,7.40
2018-12-19T14:13:57.869Z,7.40
2018-12-19T14:16:26.361Z,7.40
2018-12-19T14:18:54.601Z,7.40
2018-12-19T14:21:22.968Z,7.40
2018-12-19T14:23:51.263Z,7.40
2018-12-19T14:26:19.508Z,7.40
2018-12-19T14:28:48.572Z,7.40
2018-12-19T14:31:17.726Z,7.40
2018-12-19T14:33:45.908Z,7.40
2018-12-19T14:36:14.077Z,7.40
2018-12-19T14:38:42.854Z,7.40
2018-12-19T14:41:11.320Z,7.40
2018-12-19T14:43:39.597Z,7.30
2018-12-19T14:46:07.980Z,7.30
2018-12-19T14:48:36.323Z,7.30
2018-12-19T14:51:04.949Z,7.30
2018-12-19T14:53:33.491Z,7.20
2018-12-19T14:56:01.793Z,7.20
2018-12-19T14:58:30.052Z,7.20
2018-12-19T15:00:58.418Z,7.20
2018-12-19T15:03:26.958Z,7.20
2018-12-19T15:05:55.485Z,7.10
2018-12-19T15:08:23.800Z,7.10
2018-12-19T15:10:52.527Z,7.10
2018-12-19T15:13:20.762Z,7.00
2018-12-19T15:16:05.750Z,7.00
2018-12-19T15:18:34.005Z,6.90
2018-12-19T15:21:02.306Z,6.80
2018-12-19T15:23:30.969Z,6.80
2018-12-19T15:25:59.368Z,6.80
2018-12-19T15:28:27.613Z,6.80
2018-12-19T15:30:56.025Z,6.80
2018-12-19T15:33:24.301Z,6.70
2018-12-19T15:35:53.054Z,6.80
2018-12-19T15:38:21.244Z,6.80
2018-12-19T15:40:50.293Z,6.70
2018-12-19T15:43:18.664Z,6.60
2018-12-19T15:45:47.413Z,6.40
2018-12-19T15:48:15.965Z,6.30
2018-12-19T15:50:50.652Z,6.20
2018-12-19T15:53:19.092Z,6.20
2018-12-19T15:55:47.862Z,6.10
2018-12-19T15:58:16.699Z,6.00
2018-12-19T16:00:45.435Z,5.90
2018-12-19T16:03:14.488Z,5.80
2018-12-19T16:05:44.320Z,5.60
2018-12-19T16:08:13.177Z,5.60
2018-12-19T16:10:42.281Z,5.60
2018-12-19T16:13:10.771Z,5.60
2018-12-19T16:15:39.281Z,5.50
2018-12-19T16:18:08.073Z,5.40
2018-12-19T16:20:36.393Z,5.40
2018-12-19T16:23:04.844Z,5.50
2018-12-19T16:25:33.401Z,5.50
2018-12-19T16:28:01.813Z,5.50
2018-12-19T16:30:30.927Z,5.50
2018-12-19T16:32:59.246Z,5.50
2018-12-19T16:35:28.503Z,5.50
2018-12-19T16:37:57.480Z,5.50
2018-12-19T16:40:26.003Z,5.40
2018-12-19T16:42:54.737Z,5.40
2018-12-19T16:45:23.112Z,5.40
2018-12-19T16:47:51.552Z,5.30
2018-12-19T16:50:20.084Z,5.30
2018-12-19T16:52:48.877Z,5.30
2018-12-19T16:55:17.439Z,5.40
2018-12-19T16:57:46.227Z,5.30
2018-12-19T17:00:14.528Z,5.20
2018-12-19T17:02:42.745Z,5.20
2018-12-19T17:05:11.368Z,5.20
2018-12-19T17:07:39.852Z,5.20
2018-12-19T17:10:08.835Z,5.30
2018-12-19T17:12:37.501Z,5.30
2018-12-19T17:15:06.304Z,5.40
2018-12-19T17:17:34.805Z,5.40
2018-12-19T17:20:03.153Z,5.40
2018-12-19T17:22:31.569Z,5.40
2018-12-19T17:25:00.163Z,5.40
2018-12-19T17:27:28.458Z,5.40
2018-12-19T17:29:56.745Z,5.30
2018-12-19T17:32:25.525Z,5.30
2018-12-19T17:34:54.899Z,5.30
2018-12-19T17:37:23.443Z,5.30
2018-12-19T17:39:51.969Z,5.20
2018-12-19T17:42:20.604Z,5.20
2018-12-19T17:45:06.685Z,5.20
2018-12-19T17:47:35.231Z,5.10
2018-12-19T17:50:03.938Z,5.10
2018-12-19T17:52:32.123Z,5.10
2018-12-19T17:55:00.315Z,5.00
2018-12-19T17:57:28.781Z,5.00
2018-12-19T17:59:57.229Z,5.00
2018-12-19T18:02:25.995Z,4.90
2018-12-19T18:04:54.706Z,4.90
2018-12-19T18:07:23.418Z,4.80
2018-12-19T18:09:52.378Z,4.80
2018-12-19T18:12:20.967Z,4.80
2018-12-19T18:14:49.603Z,4.80
2018-12-19T18:17:17.993Z,4.70
2018-12-19T18:19:46.602Z,4.70
2018-12-19T18:22:15.160Z,4.70
2018-12-19T18:24:43.576Z,4.70
2018-12-19T18:27:12.163Z,4.70
2018-12-19T18:29:40.549Z,4.70
2018-12-19T18:32:09.536Z,4.70
2018-12-19T18:34:38.183Z,4.70
2018-12-19T18:37:06.462Z,4.70
2018-12-19T18:39:35.282Z,4.70
2018-12-19T18:42:04.278Z,4.70
2018-12-19T18:44:33.078Z,4.70
2018-12-19T18:47:01.940Z,4.70
2018-12-19T18:49:30.353Z,4.70
2018-12-19T18:51:58.871Z,4.70
2018-12-19T18:54:27.159Z,4.70
2018-12-19T18:56:55.795Z,4.70
2018-12-19T18:59:24.270Z,4.70
2018-12-19T19:01:53.228Z,4.70
2018-12-19T19:04:21.558Z,4.60
2018-12-19T19:06:50.203Z,4.60
2018-12-19T19:09:18.860Z,4.60
2018-12-19T19:11:47.235Z,4.60
2018-12-19T19:14:15.778Z,4.60
2018-12-19T19:16:44.089Z,4.60
2018-12-19T19:19:12.682Z,4.60
2018-12-19T19:21:41.002Z,4.60
2018-12-19T19:24:09.454Z,4.70
2018-12-19T19:26:37.739Z,4.70
2018-12-19T19:29:06.326Z,4.60
2018-12-19T19:31:35.149Z,4.60
2018-12-19T19:34:03.730Z,4.60
2018-12-19T19:36:32.201Z,4.60
2018-12-19T19:39:01.001Z,4.60
2018-12-19T19:41:30.039Z,4.60
2018-12-19T19:43:58.865Z,4.60
2018-12-19T19:46:27.691Z,4.60
2018-12-19T19:48:56.022Z,4.60
2018-12-19T19:51:24.534Z,4.60
2018-12-19T19:53:52.831Z,4.50
2018-12-19T19:56:21.503Z,4.60
2018-12-19T19:58:50.465Z,4.50
2018-12-19T20:01:19.075Z,4.50
2018-12-19T20:03:48.438Z,4.60
2018-12-19T20:06:17.829Z,4.60
2018-12-19T20:08:46.080Z,4.60
2018-12-19T20:11:14.895Z,4.60
2018-12-19T20:13:43.166Z,4.60
2018-12-19T20:16:11.561Z,4.60
2018-12-19T20:18:39.887Z,4.60
2018-12-19T20:21:08.559Z,4.70
2018-12-19T20:23:36.901Z,4.80
2018-12-19T20:26:05.426Z,4.80
2018-12-19T20:28:33.916Z,4.80
2018-12-19T20:31:02.319Z,4.80
2018-12-19T20:33:31.385Z,4.80
2018-12-19T20:35:59.814Z,4.80
2018-12-19T20:38:28.460Z,4.80
2018-12-19T20:40:56.767Z,4.80
2018-12-19T20:43:25.154Z,4.80
2018-12-19T20:45:53.691Z,4.80
2018-12-19T20:48:22.288Z,4.80
2018-12-19T20:50:51.150Z,4.70
2018-12-19T20:53:19.363Z,4.70
2018-12-19T20:55:48.487Z,4.80
2018-12-19T20:58:17.029Z,4.80
2018-12-19T21:00:45.491Z,4.80
2018-12-19T21:03:14.079Z,4.80
2018-12-19T21:05:43.062Z,4.70
2018-12-19T21:08:11.578Z,4.70
2018-12-19T21:10:40.001Z,4.70
2018-12-19T21:13:08.412Z,4.70
2018-12-19T21:15:36.699Z,4.70
2018-12-19T21:18:10.677Z,4.70
2018-12-19T21:20:39.690Z,4.70
2018-12-19T21:23:08.285Z,4.70
2018-12-19T21:25:37.553Z,4.70
2018-12-19T21:28:06.202Z,4.80
2018-12-19T21:30:35.514Z,4.80
2018-12-19T21:33:04.213Z,4.80
2018-12-19T21:35:32.943Z,4.80
2018-12-19T21:38:02.030Z,4.80
2018-12-19T21:40:36.967Z,4.80
2018-12-19T21:43:05.532Z,4.80
2018-12-19T21:45:34.387Z,4.80
2018-12-19T21:48:02.961Z,4.80
2018-12-19T21:50:31.705Z,4.80
2018-12-19T21:53:00.536Z,4.80
2018-12-19T21:55:29.107Z,4.80
2018-12-19T21:57:57.588Z,4.80
2018-12-19T22:00:30.792Z,4.80
2018-12-19T22:03:03.911Z,4.80
2018-12-19T22:05:32.467Z,4.80
2018-12-19T22:08:01.686Z,4.80
2018-12-19T22:10:30.314Z,4.90
2018-12-19T22:12:58.843Z,4.90
2018-12-19T22:15:27.338Z,4.90
2018-12-19T22:18:01.019Z,4.90
2018-12-19T22:20:30.698Z,4.90
2018-12-19T22:23:00.162Z,4.90
2018-12-19T22:25:29.157Z,4.90
2018-12-19T22:27:57.744Z,4.90
2018-12-19T22:30:26.611Z,4.90
2018-12-19T22:32:56.497Z,4.90
2018-12-19T22:35:25.126Z,5.00
2018-12-19T22:37:54.229Z,4.90
2018-12-19T22:40:23.297Z,4.90
2018-12-19T22:42:52.163Z,5.00
2018-12-19T22:45:21.006Z,4.90
2018-12-19T22:47:49.691Z,4.90
2018-12-19T22:50:18.353Z,4.80
2018-12-19T22:52:47.471Z,4.80
2018-12-19T22:55:15.954Z,4.80
2018-12-19T22:57:44.392Z,4.80
2018-12-19T23:00:17.992Z,4.80
2018-12-19T23:02:52.774Z,4.90
2018-12-19T23:05:26.910Z,4.90
2018-12-19T23:07:55.687Z,5.00
2018-12-19T23:10:24.486Z,5.00
2018-12-19T23:12:53.095Z,5.10
2018-12-19T23:15:22.078Z,5.10
2018-12-19T23:17:52.645Z,5.10
2018-12-19T23:20:21.459Z,5.10
2018-12-19T23:22:50.502Z,5.10
2018-12-19T23:25:19.623Z,5.20
2018-12-19T23:27:48.234Z,5.10
2018-12-19T23:30:16.910Z,5.20
2018-12-19T23:32:45.462Z,5.10
2018-12-19T23:35:14.550Z,5.10
2018-12-19T23:37:44.068Z,5.00
2018-12-19T23:40:13.043Z,4.90
2018-12-19T23:42:41.536Z,4.90
2018-12-19T23:45:10.405Z,4.90
2018-12-19T23:47:39.845Z,5.00
2018-12-19T23:50:08.610Z,5.10
2018-12-19T23:52:37.376Z,5.20
2018-12-19T23:55:06.666Z,5.20
2018-12-19T23:57:35.494Z,5.20
